Commit Graph

103 Commits

Author SHA1 Message Date
firestarsdog fff9ef7a8e Stats 2026-02-02 01:07:28 -05:00
firestarsdog 433ef324e1 Stats 2026-02-01 22:46:33 -06:00
firestar5683 86d0954cfb friction threshold 2026-01-29 11:28:42 -06:00
firestar5683 63acba85dd tune 2026-01-29 11:28:42 -06:00
firestar5683 cfdcad5e54 lat updates 2026-01-28 23:52:15 -06:00
firestar5683 eaf78f7c99 Update override.toml 2026-01-19 21:18:47 -06:00
firestar5683 8903857cd5 Revert "Mac Update"
This reverts commit 6c20751a0b.
2026-01-19 11:45:02 -06:00
firestarsdog 7da0ff0875 Add SASCM to vehicle settings detection/stats 2026-01-19 10:38:11 -06:00
firestar5683 6c20751a0b Mac Update 2026-01-18 22:23:06 -06:00
firestarsdog f3c02aaf56 Stats 2026-01-18 22:16:51 -06:00
firestar5683 7abcd68c0d Update interface.py 2026-01-18 22:08:07 -06:00
firestar5683 f5d53574b3 Torque Controller Update 2026-01-18 21:58:49 -06:00
firestar5683 8072a0442b Update redneck 2026-01-15 22:54:24 -06:00
firestar5683 b71b07816e Split Tune 2026-01-15 19:26:03 -06:00
firestar5683 5e462fc725 fix redneck v2 2026-01-14 13:58:35 -06:00
firestar5683 a194a7c75e Remove lat smooth seconds 2026-01-14 13:50:49 -06:00
firestar5683 0664be6bd1 frogpilot migration 2026-01-12 22:12:21 -06:00
firestar5683 b33939dd5b More defaults 2026-01-12 22:04:25 -06:00
firestar5683 ac3ed7eece Update defaults 2026-01-12 22:01:19 -06:00
firestar5683 040593d359 Big Mac 2026-01-11 16:59:24 -06:00
firestar5683 20382af75a Try Higher Friction 2026-01-10 14:04:28 -06:00
firestar5683 3359805404 Autotune Off 2026-01-09 22:44:33 -06:00
firestar5683 37718176fb Revert "Pedal Braking Limits"
This reverts commit efd99af71e.
2025-12-31 20:56:00 -06:00
firestar5683 efd99af71e Pedal Braking Limits 2025-12-30 20:18:17 -06:00
firestar5683 6cf70ab06c merry christmas 2025-12-24 22:06:08 -06:00
firestar5683 4a06671a14 ds2 2025-12-24 21:30:28 -06:00
firestar5683 75f4d24e12 Try friction adjustment 2025-12-16 14:40:01 -06:00
firestar5683 08a9d254ce Update frogpilot_tracking.py 2025-12-15 00:56:38 -06:00
firestar5683 d3afbd4b15 minsteer speed 2025-12-14 14:47:44 -06:00
firestar5683 3d3870fbad Update Percentages 2025-12-13 19:14:57 -06:00
firestar5683 1acee6ea64 Trailer Load Gas Tuning 2025-12-12 10:51:18 -06:00
firestar5683 2eb5db43bc Live Friction 2025-12-11 16:55:55 -06:00
firestar5683 f184855906 Zero error 2025-12-11 15:12:40 -06:00
firestar5683 ae6ec1595e Updates
Update latcontrol_torque.py

interp friction threshold
2025-12-09 20:01:22 -06:00
firestar5683 e23776693c Change NoEntryAlert message to 'Reverse Gear' 2025-12-06 16:46:18 -06:00
firestar5683 56d7ac9704 Update events.py 2025-12-05 20:14:09 -06:00
firestar5683 8e90f233fb LattyBoi2.0 2025-12-03 23:31:34 -06:00
firestar5683 1fd0a80836 Latty Boi
Revert "Latty Boi"

This reverts commit af687e501cc4bdcda7840453d06595d7ea674148.

Reapply "Latty Boi"

This reverts commit ff5566d4439f5e4997fe83f4f21d0be62b75d75d.
2025-12-02 20:30:23 -06:00
firestar5683 392333c87b Recovery Power 2025-12-02 17:20:24 -06:00
firestar5683 f9daea40bd New planplus 2025-12-02 12:10:22 -06:00
Woohyun Rho 5581ea22e7 Update 2025-11-28 17:13:20 -06:00
firestar5683 d72a3996f6 New Lateral Changes 2025-11-18 20:50:34 -06:00
firestarsdog 37f65bd382 Gen2ACC Distance Button Sync for CC_ONLY_CAR 2025-11-16 00:49:15 -05:00
firestar5683 40dee4661c Update 2025-11-15 14:46:12 -06:00
firestar5683 dcb0104208 Accel Tests 2025-11-14 20:33:42 -06:00
firestar5683 38d725ea03 Paddle Planner 2025-11-14 19:47:31 -05:00
firestar5683 5b69250cac Revert "Upstream Lateral"
This reverts commit faf1a6755d.
2025-11-10 18:33:23 -06:00
firestar5683 faf1a6755d Upstream Lateral
Revert "Upstream Lateral"

This reverts commit 20f7d6631bb152860781b46533bb0e96223be132.

Reapply "Upstream Lateral"

This reverts commit 2a7a563e219a1b688529d341919fc377fed5038e.

Update latcontrol_torque.py

more lateral

Update ui
2025-11-07 00:14:06 -06:00
firestar5683 2d51ca9538 Revert "Pedal Panda?"
This reverts commit 938fe7a088.
2025-10-30 22:36:32 -05:00
firestar5683 78223aa635 Pedal? 2025-10-28 16:48:48 -05:00